Flight Number: EUR1154 Duration: 1:00
Departure: Budapest Ferihegy (LHBP) at 08:15 Distance: 343 Nm
Arrival: Skopje Airport (LWSK) at 09:15 Equipment: A321

Weather Information
Budapest / Ferihegy, Hungary (LHBP) 47-26N 019-16E 185M Aug 19, 2018 - 05:00 AM EDT / 2018.08.19 0900 UTC
Wind: from the ESE (120 degrees) at 7 MPH (6 KT) (direction variable):0
Visibility: greater than 7 mile(s):0 Temperature: 84 F (29 C) Dew Point: 62 F (17 C) Relative Humidity: 48% Pressure (altimeter): 30.12 in. Hg (1020 hPa)
ob: LHBP 190900Z 12006KT 080V160 CAVOK 29/17 Q1020 NOSIG cycle: 9
Sunrise: 03:48 Sunset: 17:44 (UTC)

Skopje-Petrovec, Macedonia, The Republic of (LWSK) 41-58N 021-39E 239M Aug 19, 2018 - 05:00 AM EDT / 2018.08.19 0900 UTC
Wind: Variable at 2 MPH (2 KT):0
Visibility: greater than 7 mile(s):0
Sky conditions: mostly clear Temperature: 82 F (28 C) Dew Point: 60 F (16 C) Relative Humidity: 48% Pressure (altimeter): 30.06 in. Hg (1018 hPa)
ob: LWSK 190900Z VRB02KT 9999 FEW100 28/16 Q1018 NOSIG cycle: 9
Sunrise: 03:49 Sunset: 17:24 (UTC)

TAF:2018/08/19 09:39 TAF LWSK 190830Z 1909/2009 VRB02KT 9999 FEW050 PROB30 TEMPO 1912/1918 VRB15KT 9999 SHRA FEW033CB BKN040

Previous Pireps for this route
Date Aircraft Flight time Fuel used Landing rate On time
2012-09-09A32101.34-9115-1105No
2012-09-28A32101.1610170-273Yes
2012-10-26A32101.4910150-574Charter
2013-02-09A32101.2411588-164Yes
2013-08-19A3211.0080000No
2013-09-30A32101.3511762-273No
2014-05-12A32101.168038-238Yes
2014-11-15A3211.1377700Yes
2014-11-15A3211.1377700No
2015-04-02A32101.107459-425No
2016-05-21A3211,0060000Yes
2016-12-27A3211.1189460No
(pireps marked green are flown by you)

Route map